createdAt,value
2023-10-20T00:00:22.929Z,50.902378
2023-10-20T00:01:22.930Z,50.902359
2023-10-20T00:02:22.982Z,50.902374
2023-10-20T00:03:22.978Z,50.902351
2023-10-20T00:04:22.924Z,50.902378
2023-10-20T00:05:22.948Z,50.902363
2023-10-20T00:06:22.879Z,50.902374
2023-10-20T00:07:22.872Z,50.902355
2023-10-20T00:08:22.919Z,50.902348
2023-10-20T00:09:22.890Z,50.902374
2023-10-20T00:10:22.846Z,50.902386
2023-10-20T00:11:22.859Z,50.902370
2023-10-20T00:12:23.851Z,50.902367
2023-10-20T00:13:22.858Z,50.902390
2023-10-20T00:14:22.868Z,50.902443
2023-10-20T00:15:22.822Z,50.902378
2023-10-20T00:16:22.823Z,50.902351
2023-10-20T00:17:22.896Z,50.902351
2023-10-20T00:18:22.872Z,50.902378
2023-10-20T00:19:22.778Z,50.902405
2023-10-20T00:20:22.794Z,50.902382
2023-10-20T00:21:22.759Z,50.902363
2023-10-20T00:22:22.770Z,50.902363
2023-10-20T00:23:22.827Z,50.902382
2023-10-20T00:24:22.750Z,50.902390
2023-10-20T00:25:22.736Z,50.902363
2023-10-20T00:26:22.742Z,50.902359
2023-10-20T00:27:22.759Z,50.902351
2023-10-20T00:28:22.734Z,50.902348
2023-10-20T00:29:22.716Z,50.902382
2023-10-20T00:30:22.704Z,50.902378
2023-10-20T00:31:22.730Z,50.902359
2023-10-20T00:32:22.702Z,50.902378
2023-10-20T00:33:22.701Z,50.902390
2023-10-20T00:34:22.677Z,50.902409
2023-10-20T00:35:22.678Z,50.902393
2023-10-20T00:36:22.649Z,50.902386
2023-10-20T00:37:22.671Z,50.902370
2023-10-20T00:38:22.660Z,50.902386
2023-10-20T00:39:22.626Z,50.902397
2023-10-20T00:40:22.620Z,50.902393
2023-10-20T00:41:22.658Z,50.902374
2023-10-20T00:42:22.676Z,50.902390
2023-10-20T00:43:22.598Z,50.902393
2023-10-20T00:44:22.633Z,50.902374
2023-10-20T00:45:22.582Z,50.902412
2023-10-20T00:46:22.599Z,50.902382
2023-10-20T00:47:22.643Z,50.902390
2023-10-20T00:48:22.670Z,50.902428
2023-10-20T00:49:22.554Z,50.902416
2023-10-20T00:50:22.556Z,50.902409
2023-10-20T00:51:22.558Z,50.902397
2023-10-20T00:52:22.526Z,50.902416
2023-10-20T00:53:22.584Z,50.902390
2023-10-20T00:54:22.511Z,50.902397
2023-10-20T00:55:22.542Z,50.902424
2023-10-20T00:56:22.566Z,50.902386
2023-10-20T00:57:22.517Z,50.902378
2023-10-20T00:58:22.467Z,50.902390
2023-10-20T00:59:23.489Z,50.902370
2023-10-20T01:00:22.496Z,50.902374
2023-10-20T01:01:22.582Z,50.902405
2023-10-20T01:02:22.568Z,50.902393
2023-10-20T01:03:22.549Z,50.902393
2023-10-20T01:04:22.440Z,50.902386
2023-10-20T01:05:22.561Z,50.902382
2023-10-20T01:06:22.427Z,50.902378
2023-10-20T01:07:22.413Z,50.902393
2023-10-20T01:08:22.441Z,50.902405
2023-10-20T01:09:22.460Z,50.902386
2023-10-20T01:10:22.415Z,50.902390
2023-10-20T01:11:22.418Z,50.902393
2023-10-20T01:12:22.374Z,50.902412
2023-10-20T01:13:22.361Z,50.902397
2023-10-20T01:14:22.402Z,50.902409
2023-10-20T01:15:22.398Z,50.902405
2023-10-20T01:16:22.400Z,50.902420
2023-10-20T01:17:22.383Z,50.902370
2023-10-20T01:18:22.388Z,50.902382
2023-10-20T01:19:22.342Z,50.902397
2023-10-20T01:20:22.340Z,50.902409
2023-10-20T01:21:22.302Z,50.902397
2023-10-20T01:22:22.287Z,50.902390
2023-10-20T01:23:22.328Z,50.902397
2023-10-20T01:24:22.305Z,50.902386
2023-10-20T01:25:22.265Z,50.902378
2023-10-20T01:26:22.381Z,50.902359
2023-10-20T01:27:22.253Z,50.902386
2023-10-20T01:28:22.270Z,50.902386
2023-10-20T01:29:22.292Z,50.902409
2023-10-20T01:30:22.245Z,50.902409
2023-10-20T01:31:22.215Z,50.902401
2023-10-20T01:32:22.268Z,50.902390
2023-10-20T01:33:22.273Z,50.902409
2023-10-20T01:34:22.228Z,50.902393
2023-10-20T01:35:23.212Z,50.902405
2023-10-20T01:36:22.176Z,50.902420
2023-10-20T01:37:22.164Z,50.902424
2023-10-20T01:38:22.221Z,50.902409
2023-10-20T01:39:22.154Z,50.902420
2023-10-20T01:40:22.147Z,50.902420
2023-10-20T01:41:22.194Z,50.902424
2023-10-20T01:42:22.234Z,50.902428
2023-10-20T01:43:22.160Z,50.902431
2023-10-20T01:44:22.135Z,50.902435
2023-10-20T01:45:23.123Z,50.902439
2023-10-20T01:46:22.112Z,50.902466
2023-10-20T01:47:22.144Z,50.902454
2023-10-20T01:48:22.146Z,50.902485
2023-10-20T01:49:22.074Z,50.902454
2023-10-20T01:50:22.118Z,50.902443
2023-10-20T01:51:22.060Z,50.902454
2023-10-20T01:52:23.080Z,50.902431
2023-10-20T01:53:22.079Z,50.902443
2023-10-20T01:54:22.050Z,50.902462
2023-10-20T01:55:22.052Z,50.902477
2023-10-20T01:56:22.054Z,50.902443
2023-10-20T01:57:22.057Z,50.902428
2023-10-20T01:58:22.020Z,50.902416
2023-10-20T01:59:22.058Z,50.902431
2023-10-20T02:00:22.001Z,50.902447
2023-10-20T02:01:22.031Z,50.902443
2023-10-20T02:02:22.046Z,50.902466
2023-10-20T02:03:22.072Z,50.902451
2023-10-20T02:04:21.973Z,50.902435
2023-10-20T02:05:21.984Z,50.902431
2023-10-20T02:06:21.983Z,50.902405
2023-10-20T02:07:21.938Z,50.902439
2023-10-20T02:08:21.957Z,50.902439
2023-10-20T02:09:21.939Z,50.902451
2023-10-20T02:10:21.921Z,50.902454
2023-10-20T02:11:22.005Z,50.902473
2023-10-20T02:12:21.900Z,50.902458
2023-10-20T02:13:21.897Z,50.902431
2023-10-20T02:14:21.968Z,50.902428
2023-10-20T02:15:21.908Z,50.902424
2023-10-20T02:16:21.952Z,50.902443
2023-10-20T02:17:21.870Z,50.902409
2023-10-20T02:18:21.951Z,50.902428
2023-10-20T02:19:21.841Z,50.902443
2023-10-20T02:20:21.905Z,50.902424
2023-10-20T02:21:21.831Z,50.902447
2023-10-20T02:22:21.823Z,50.902428
2023-10-20T02:23:21.848Z,50.902412
2023-10-20T02:24:21.807Z,50.902431
2023-10-20T02:25:21.828Z,50.902470
2023-10-20T02:26:21.829Z,50.902481
2023-10-20T02:27:21.795Z,50.902466
2023-10-20T02:28:21.777Z,50.902462
2023-10-20T02:29:21.784Z,50.902489
2023-10-20T02:30:21.792Z,50.902451
2023-10-20T02:31:21.787Z,50.902435
2023-10-20T02:32:21.785Z,50.902451
2023-10-20T02:33:21.773Z,50.902473
2023-10-20T02:34:21.757Z,50.902462
2023-10-20T02:35:21.856Z,50.902519
2023-10-20T02:36:21.741Z,50.902508
2023-10-20T02:37:21.727Z,50.902527
2023-10-20T02:38:21.762Z,50.902462
2023-10-20T02:39:21.731Z,50.902454
2023-10-20T02:40:21.696Z,50.902473
2023-10-20T02:41:21.741Z,50.902477
2023-10-20T02:42:21.677Z,50.902470
2023-10-20T02:43:21.660Z,50.902489
2023-10-20T02:44:21.721Z,50.902496
2023-10-20T02:45:21.657Z,50.902493
2023-10-20T02:46:21.653Z,50.902481
2023-10-20T02:47:21.669Z,50.902485
2023-10-20T02:48:21.714Z,50.902485
2023-10-20T02:49:21.646Z,50.902485
2023-10-20T02:50:21.776Z,50.902466
2023-10-20T02:51:21.611Z,50.902470
2023-10-20T02:52:21.597Z,50.902466
2023-10-20T02:53:21.669Z,50.902473
2023-10-20T02:54:21.585Z,50.902473
2023-10-20T02:55:21.577Z,50.902477
2023-10-20T02:56:21.603Z,50.902473
2023-10-20T02:57:21.554Z,50.902470
2023-10-20T02:58:22.576Z,50.902473
2023-10-20T02:59:21.585Z,50.902462
2023-10-20T03:00:21.530Z,50.902466
2023-10-20T03:01:21.550Z,50.902470
2023-10-20T03:02:21.752Z,50.902489
2023-10-20T03:03:21.768Z,50.902481
2023-10-20T03:04:21.688Z,50.902462
2023-10-20T03:05:21.534Z,50.902458
2023-10-20T03:06:21.484Z,50.902451
2023-10-20T03:07:21.536Z,50.902466
2023-10-20T03:08:21.535Z,50.902466
2023-10-20T03:09:21.464Z,50.902477
2023-10-20T03:10:21.457Z,50.902489
2023-10-20T03:11:21.487Z,50.902466
2023-10-20T03:12:21.465Z,50.902481
2023-10-20T03:13:21.435Z,50.902473
2023-10-20T03:14:21.495Z,50.902462
2023-10-20T03:15:21.425Z,50.902470
2023-10-20T03:16:21.440Z,50.902454
2023-10-20T03:17:21.449Z,50.902496
2023-10-20T03:18:21.453Z,50.902485
2023-10-20T03:19:21.403Z,50.902500
2023-10-20T03:20:21.414Z,50.902493
2023-10-20T03:21:21.424Z,50.902493
2023-10-20T03:22:21.369Z,50.902489
2023-10-20T03:23:21.403Z,50.902477
2023-10-20T03:24:21.342Z,50.902485
2023-10-20T03:25:21.344Z,50.902466
2023-10-20T03:26:21.440Z,50.902458
2023-10-20T03:27:21.419Z,50.902473
2023-10-20T03:28:21.317Z,50.902454
2023-10-20T03:29:21.316Z,50.902496
2023-10-20T03:30:21.312Z,50.902477
2023-10-20T03:31:21.350Z,50.902500
2023-10-20T03:32:21.298Z,50.902454
2023-10-20T03:33:21.324Z,50.902481
2023-10-20T03:34:21.264Z,50.902485
2023-10-20T03:35:21.306Z,50.902473
2023-10-20T03:36:21.277Z,50.902489
2023-10-20T03:37:21.247Z,50.902473
2023-10-20T03:38:21.249Z,50.902466
2023-10-20T03:39:21.292Z,50.902462
2023-10-20T03:40:21.250Z,50.902470
2023-10-20T03:41:21.276Z,50.902470
2023-10-20T03:42:21.206Z,50.902477
2023-10-20T03:43:21.217Z,50.902485
2023-10-20T03:44:21.238Z,50.902519
2023-10-20T03:45:21.208Z,50.902542
2023-10-20T03:46:21.234Z,50.902466
2023-10-20T03:47:21.205Z,50.902458
2023-10-20T03:48:21.170Z,50.902504
2023-10-20T03:49:21.153Z,50.902500
2023-10-20T03:50:21.188Z,50.902477
2023-10-20T03:51:21.127Z,50.902431
2023-10-20T03:52:21.126Z,50.902451
2023-10-20T03:53:22.596Z,50.902454
2023-10-20T03:54:22.143Z,50.902435
2023-10-20T03:55:21.131Z,50.902485
2023-10-20T03:56:21.110Z,50.902435
2023-10-20T03:57:21.077Z,50.902454
2023-10-20T03:58:21.080Z,50.902439
2023-10-20T03:59:21.153Z,50.902409
2023-10-20T04:00:21.085Z,50.902409
2023-10-20T04:01:21.066Z,50.902439
2023-10-20T04:02:21.077Z,50.902466
2023-10-20T04:03:21.061Z,50.902424
2023-10-20T04:04:21.179Z,50.902439
2023-10-20T04:05:21.088Z,50.902462
2023-10-20T04:06:21.012Z,50.902439
2023-10-20T04:07:21.013Z,50.902424
2023-10-20T04:08:21.056Z,50.902424
2023-10-20T04:09:21.011Z,50.902454
2023-10-20T04:10:21.085Z,50.902405
2023-10-20T04:11:22.746Z,50.902424
2023-10-20T04:12:20.965Z,50.902424
2023-10-20T04:13:20.994Z,50.902428
2023-10-20T04:14:20.979Z,50.902420
2023-10-20T04:15:21.032Z,50.902424
2023-10-20T04:16:20.952Z,50.902447
2023-10-20T04:17:20.993Z,50.902431
2023-10-20T04:18:20.980Z,50.902412
2023-10-20T04:19:20.905Z,50.902431
2023-10-20T04:20:20.972Z,50.902428
2023-10-20T04:21:20.900Z,50.902424
2023-10-20T04:22:20.923Z,50.902412
2023-10-20T04:23:20.950Z,50.902420
2023-10-20T04:24:20.874Z,50.902420
2023-10-20T04:25:20.881Z,50.902447
2023-10-20T04:26:20.909Z,50.902439
2023-10-20T04:27:20.876Z,50.902439
2023-10-20T04:28:20.844Z,50.902393
2023-10-20T04:29:20.885Z,50.902397
2023-10-20T04:30:20.817Z,50.902416
2023-10-20T04:31:21.825Z,50.902390
2023-10-20T04:32:21.524Z,50.902405
2023-10-20T04:33:20.861Z,50.902420
2023-10-20T04:34:20.798Z,50.902412
2023-10-20T04:35:20.794Z,50.902420
2023-10-20T04:36:20.776Z,50.902409
2023-10-20T04:37:20.796Z,50.902386
2023-10-20T04:38:20.771Z,50.902393
2023-10-20T04:39:20.745Z,50.902390
2023-10-20T04:40:20.784Z,50.902401
2023-10-20T04:41:20.757Z,50.902416
2023-10-20T04:42:20.753Z,50.902412
2023-10-20T04:43:20.749Z,50.902405
2023-10-20T04:44:20.727Z,50.902412
2023-10-20T04:45:20.755Z,50.902428
2023-10-20T04:46:20.771Z,50.902409
2023-10-20T04:47:20.786Z,50.902397
2023-10-20T04:48:20.714Z,50.902416
2023-10-20T04:49:20.668Z,50.902382
2023-10-20T04:50:20.691Z,50.902393
2023-10-20T04:51:20.676Z,50.902378
2023-10-20T04:52:20.665Z,50.902367
2023-10-20T04:53:20.657Z,50.902397
2023-10-20T04:54:20.627Z,50.902390
2023-10-20T04:55:54.553Z,50.902370
2023-10-20T04:56:20.657Z,50.902405
2023-10-20T04:57:20.642Z,50.902397
2023-10-20T04:58:20.608Z,50.902378
2023-10-20T04:59:20.620Z,50.902393
2023-10-20T05:00:20.605Z,50.902393
2023-10-20T05:01:21.634Z,50.902412
2023-10-20T05:02:20.604Z,50.902401
2023-10-20T05:03:20.641Z,50.902420
2023-10-20T05:04:20.594Z,50.902416
2023-10-20T05:05:20.628Z,50.902397
2023-10-20T05:06:20.540Z,50.902378
2023-10-20T05:07:20.518Z,50.902401
2023-10-20T05:08:20.549Z,50.902363
2023-10-20T05:09:20.516Z,50.902401
2023-10-20T05:10:20.551Z,50.902420
2023-10-20T05:11:20.535Z,50.902401
2023-10-20T05:12:20.497Z,50.902412
2023-10-20T05:13:20.492Z,50.902412
2023-10-20T05:14:20.528Z,50.902401
2023-10-20T05:15:20.511Z,50.902397
2023-10-20T05:16:20.514Z,50.902412
2023-10-20T05:17:20.616Z,50.902397
2023-10-20T05:18:20.476Z,50.902420
2023-10-20T05:19:20.479Z,50.902420
2023-10-20T05:20:20.535Z,50.902424
2023-10-20T05:21:20.473Z,50.902431
2023-10-20T05:22:20.448Z,50.902431
2023-10-20T05:23:20.417Z,50.902416
2023-10-20T05:24:20.417Z,50.902424
2023-10-20T05:25:20.438Z,50.902485
2023-10-20T05:26:20.414Z,50.902412
2023-10-20T05:27:20.377Z,50.902382
2023-10-20T05:28:20.362Z,50.902397
2023-10-20T05:29:20.433Z,50.902405
2023-10-20T05:30:20.370Z,50.902435
2023-10-20T05:31:20.400Z,50.902428
2023-10-20T05:32:20.362Z,50.902386
2023-10-20T05:33:20.369Z,50.902416
2023-10-20T05:34:20.330Z,50.902355
2023-10-20T05:35:20.360Z,50.902367
2023-10-20T05:36:20.303Z,50.902435
2023-10-20T05:37:20.293Z,50.902409
2023-10-20T05:38:20.376Z,50.902382
2023-10-20T05:39:20.280Z,50.902416
2023-10-20T05:40:20.277Z,50.902409
2023-10-20T05:41:20.338Z,50.902405
2023-10-20T05:42:20.331Z,50.902416
2023-10-20T05:43:20.280Z,50.902405
2023-10-20T05:44:20.369Z,50.902431
2023-10-20T05:45:20.266Z,50.902393
2023-10-20T05:46:20.270Z,50.902359
2023-10-20T05:47:20.273Z,50.902390
2023-10-20T05:48:20.395Z,50.902397
2023-10-20T05:49:20.367Z,50.902416
2023-10-20T05:50:20.244Z,50.902462
2023-10-20T05:51:20.244Z,50.902431
2023-10-20T05:52:20.254Z,50.902401
2023-10-20T05:53:20.183Z,50.902420
2023-10-20T05:54:20.201Z,50.902393
2023-10-20T05:55:20.176Z,50.902424
2023-10-20T05:56:20.186Z,50.902409
2023-10-20T05:57:20.247Z,50.902416
2023-10-20T05:58:20.190Z,50.902393
2023-10-20T05:59:20.238Z,50.902393
2023-10-20T06:00:20.157Z,50.902390
2023-10-20T06:01:20.207Z,50.902359
2023-10-20T06:02:20.214Z,50.902420
2023-10-20T06:03:20.185Z,50.902397
2023-10-20T06:04:20.173Z,50.902435
2023-10-20T06:05:20.166Z,50.902431
2023-10-20T06:06:20.114Z,50.902405
2023-10-20T06:07:20.140Z,50.902416
2023-10-20T06:08:20.144Z,50.902447
2023-10-20T06:09:20.144Z,50.902424
2023-10-20T06:10:20.108Z,50.902416
2023-10-20T06:11:20.301Z,50.902443
2023-10-20T06:12:20.047Z,50.902428
2023-10-20T06:13:20.029Z,50.902435
2023-10-20T06:14:20.111Z,50.902439
2023-10-20T06:15:20.066Z,50.902393
2023-10-20T06:16:20.082Z,50.902431
2023-10-20T06:17:20.075Z,50.902401
2023-10-20T06:18:32.900Z,50.902416
2023-10-20T06:19:21.989Z,50.902420
2023-10-20T06:20:20.100Z,50.902382
2023-10-20T06:21:20.148Z,50.902393
2023-10-20T06:22:19.981Z,50.902390
2023-10-20T06:23:20.234Z,50.902386
2023-10-20T06:24:19.970Z,50.902409
2023-10-20T06:25:20.099Z,50.902397
2023-10-20T06:26:20.028Z,50.902390
2023-10-20T06:27:20.021Z,50.902397
2023-10-20T06:28:20.000Z,50.902382
2023-10-20T06:29:19.961Z,50.902382
2023-10-20T06:30:19.930Z,50.902374
2023-10-20T06:31:19.943Z,50.902382
2023-10-20T06:32:19.900Z,50.902363
2023-10-20T06:33:21.012Z,50.902393
2023-10-20T06:34:19.902Z,50.902367
2023-10-20T06:35:19.997Z,50.902374
2023-10-20T06:36:19.863Z,50.902355
2023-10-20T06:37:19.871Z,50.902367
2023-10-20T06:38:19.892Z,50.902390
2023-10-20T06:39:20.447Z,50.902401
2023-10-20T06:40:19.848Z,50.902363
2023-10-20T06:41:19.925Z,50.902309
2023-10-20T06:42:21.755Z,50.902378
2023-10-20T06:43:19.825Z,50.902367
2023-10-20T06:44:19.866Z,50.902378
2023-10-20T06:45:19.837Z,50.902428
2023-10-20T06:46:19.802Z,50.902443
2023-10-20T06:47:19.807Z,50.902451
2023-10-20T06:48:19.819Z,50.902416
2023-10-20T06:49:20.307Z,50.902390
2023-10-20T06:50:19.794Z,50.902439
2023-10-20T06:51:19.722Z,50.902412
2023-10-20T06:52:19.737Z,50.902451
2023-10-20T06:53:19.771Z,50.902431
2023-10-20T06:54:19.715Z,50.902420
2023-10-20T06:55:44.890Z,50.902458
2023-10-20T06:56:25.856Z,50.902428
2023-10-20T06:57:21.710Z,50.902454
2023-10-20T06:58:19.740Z,50.902401
2023-10-20T06:59:19.680Z,50.902370
2023-10-20T07:00:19.717Z,50.902409
2023-10-20T07:01:19.776Z,50.902393
2023-10-20T07:02:19.720Z,50.902462
2023-10-20T07:03:19.787Z,50.902481
2023-10-20T07:04:19.692Z,50.902439
2023-10-20T07:05:19.714Z,50.902424
2023-10-20T07:06:19.622Z,50.902401
2023-10-20T07:07:19.630Z,50.902428
2023-10-20T07:08:19.639Z,50.902424
2023-10-20T07:09:19.652Z,50.902397
2023-10-20T07:10:19.638Z,50.902397
2023-10-20T07:11:19.612Z,50.902390
2023-10-20T07:12:19.627Z,50.902405
2023-10-20T07:13:19.600Z,50.902363
2023-10-20T07:14:19.570Z,50.902359
2023-10-20T07:15:19.595Z,50.902367
2023-10-20T07:16:19.630Z,50.902393
2023-10-20T07:17:19.564Z,50.902420
2023-10-20T07:18:19.621Z,50.902378
2023-10-20T07:19:19.536Z,50.902374
2023-10-20T07:20:19.589Z,50.902439
2023-10-20T07:21:19.560Z,50.902397
2023-10-20T07:22:19.510Z,50.902412
2023-10-20T07:23:19.547Z,50.902416
2023-10-20T07:24:19.490Z,50.902409
2023-10-20T07:25:19.477Z,50.902397
2023-10-20T07:26:19.729Z,50.902416
2023-10-20T07:27:19.454Z,50.902424
2023-10-20T07:28:19.507Z,50.902428
2023-10-20T07:29:19.526Z,50.902412
2023-10-20T07:30:19.496Z,50.902435
2023-10-20T07:31:19.493Z,50.902431
2023-10-20T07:32:19.460Z,50.902416
2023-10-20T07:33:19.511Z,50.902412
2023-10-20T07:34:19.442Z,50.902428
2023-10-20T07:35:19.452Z,50.902424
2023-10-20T07:36:19.418Z,50.902416
2023-10-20T07:37:19.396Z,50.902424
2023-10-20T07:38:19.417Z,50.902401
2023-10-20T07:39:19.353Z,50.902409
2023-10-20T07:40:19.372Z,50.902443
2023-10-20T07:41:19.448Z,50.902428
2023-10-20T07:42:19.331Z,50.902424
2023-10-20T07:43:19.331Z,50.902439
2023-10-20T07:44:19.487Z,50.902424
2023-10-20T07:45:19.335Z,50.902424
2023-10-20T07:46:19.313Z,50.902401
2023-10-20T07:47:19.378Z,50.902412
2023-10-20T07:48:19.397Z,50.902420
2023-10-20T07:49:19.347Z,50.902420
2023-10-20T07:50:19.370Z,50.902431
2023-10-20T07:51:19.276Z,50.902431
2023-10-20T07:52:19.249Z,50.902424
2023-10-20T07:53:19.253Z,50.902424
2023-10-20T07:54:19.266Z,50.902428
2023-10-20T07:55:19.241Z,50.902424
2023-10-20T07:56:19.229Z,50.902416
2023-10-20T07:57:19.212Z,50.902424
2023-10-20T07:58:19.207Z,50.902412
2023-10-20T07:59:19.270Z,50.902416
2023-10-20T08:00:19.191Z,50.902439
2023-10-20T08:01:19.219Z,50.902428
2023-10-20T08:02:19.238Z,50.902412
2023-10-20T08:03:19.476Z,50.902443
2023-10-20T08:04:19.382Z,50.902431
2023-10-20T08:05:19.614Z,50.902405
2023-10-20T08:06:19.492Z,50.902412
2023-10-20T08:07:19.256Z,50.902424
2023-10-20T08:08:19.207Z,50.902409
2023-10-20T08:09:19.148Z,50.902424
2023-10-20T08:10:19.130Z,50.902431
2023-10-20T08:11:19.122Z,50.902401
2023-10-20T08:12:19.099Z,50.902424
2023-10-20T08:13:19.120Z,50.902378
2023-10-20T08:14:19.098Z,50.902374
2023-10-20T08:15:19.098Z,50.902386
2023-10-20T08:16:19.128Z,50.902393
2023-10-20T08:17:19.118Z,50.902428
2023-10-20T08:18:19.115Z,50.902416
2023-10-20T08:19:19.060Z,50.902397
2023-10-20T08:20:19.047Z,50.902397
2023-10-20T08:21:19.038Z,50.902412
2023-10-20T08:22:19.017Z,50.902405
2023-10-20T08:23:19.089Z,50.902431
2023-10-20T08:24:19.003Z,50.902447
2023-10-20T08:25:19.001Z,50.902428
2023-10-20T08:26:19.045Z,50.902416
2023-10-20T08:27:19.023Z,50.902416
2023-10-20T08:28:19.005Z,50.902420
2023-10-20T08:29:18.996Z,50.902416
2023-10-20T08:30:18.995Z,50.902382
2023-10-20T08:31:19.078Z,50.902390
2023-10-20T08:32:19.013Z,50.902363
2023-10-20T08:33:18.976Z,50.902409
2023-10-20T08:34:18.928Z,50.902374
2023-10-20T08:35:18.955Z,50.902409
2023-10-20T08:36:18.950Z,50.902431
2023-10-20T08:37:18.953Z,50.902481
2023-10-20T08:38:18.920Z,50.902523
2023-10-20T08:39:18.886Z,50.902401
2023-10-20T08:40:18.893Z,50.902390
2023-10-20T08:41:18.976Z,50.902424
2023-10-20T08:42:18.901Z,50.902412
2023-10-20T08:43:18.862Z,50.902454
2023-10-20T08:44:18.878Z,50.902500
2023-10-20T08:45:18.894Z,50.902481
2023-10-20T08:46:19.082Z,50.902397
2023-10-20T08:47:18.863Z,50.902351
2023-10-20T08:48:18.973Z,50.902386
2023-10-20T08:49:18.821Z,50.902420
2023-10-20T08:50:18.857Z,50.902416
2023-10-20T08:51:18.835Z,50.902367
2023-10-20T08:52:18.805Z,50.902435
2023-10-20T08:53:20.404Z,50.902489
2023-10-20T08:54:20.930Z,50.902435
2023-10-20T08:55:22.494Z,50.902428
2023-10-20T08:56:18.883Z,50.902401
2023-10-20T08:57:18.765Z,50.902424
2023-10-20T08:58:18.763Z,50.902412
2023-10-20T08:59:18.779Z,50.902428
2023-10-20T09:00:18.802Z,50.902401
2023-10-20T09:01:18.820Z,50.902332
2023-10-20T09:02:18.764Z,50.902386
2023-10-20T09:03:18.820Z,50.902431
2023-10-20T09:04:18.795Z,50.902443
2023-10-20T09:05:18.811Z,50.902431
2023-10-20T09:06:18.763Z,50.902382
2023-10-20T09:07:18.691Z,50.902405
2023-10-20T09:08:18.715Z,50.902382
2023-10-20T09:09:18.691Z,50.902382
2023-10-20T09:10:18.711Z,50.902462
2023-10-20T09:11:18.688Z,50.902477
2023-10-20T09:12:18.659Z,50.902435
2023-10-20T09:13:18.654Z,50.902401
2023-10-20T09:14:18.676Z,50.902405
2023-10-20T09:15:18.656Z,50.902393
2023-10-20T09:16:18.773Z,50.902374
2023-10-20T09:17:18.643Z,50.902401
2023-10-20T09:18:18.710Z,50.902409
2023-10-20T09:19:18.622Z,50.902401
2023-10-20T09:20:18.648Z,50.902386
2023-10-20T09:21:18.610Z,50.902435
2023-10-20T09:22:18.578Z,50.902390
2023-10-20T09:23:18.603Z,50.902420
2023-10-20T09:24:18.634Z,50.902412
2023-10-20T09:25:18.698Z,50.902386
2023-10-20T09:26:19.614Z,50.902397
2023-10-20T09:27:18.544Z,50.902397
2023-10-20T09:28:18.553Z,50.902393
2023-10-20T09:29:18.628Z,50.902374
2023-10-20T09:30:18.519Z,50.902393
2023-10-20T09:31:18.521Z,50.902428
2023-10-20T09:32:18.524Z,50.902424
2023-10-20T09:33:18.564Z,50.902420
2023-10-20T09:34:18.518Z,50.902405
2023-10-20T09:35:18.512Z,50.902409
2023-10-20T09:36:18.489Z,50.902412
2023-10-20T09:37:18.478Z,50.902397
2023-10-20T09:38:18.543Z,50.902390
2023-10-20T09:39:18.477Z,50.902405
2023-10-20T09:40:18.444Z,50.902420
2023-10-20T09:41:18.454Z,50.902416
2023-10-20T09:42:18.431Z,50.902390
2023-10-20T09:43:25.546Z,50.902393
2023-10-20T09:44:20.463Z,50.902424
2023-10-20T09:45:18.426Z,50.902439
2023-10-20T09:46:18.440Z,50.902428
2023-10-20T09:47:18.501Z,50.902435
2023-10-20T09:48:18.508Z,50.902409
2023-10-20T09:49:18.379Z,50.902412
2023-10-20T09:50:18.400Z,50.902397
2023-10-20T09:51:18.366Z,50.902405
2023-10-20T09:52:18.355Z,50.902431
2023-10-20T09:53:18.388Z,50.902393
2023-10-20T09:54:18.332Z,50.902447
2023-10-20T09:55:18.330Z,50.902477
2023-10-20T09:56:18.372Z,50.902451
2023-10-20T09:57:18.343Z,50.902435
2023-10-20T09:58:18.334Z,50.902420
2023-10-20T09:59:18.309Z,50.902435
2023-10-20T10:00:18.314Z,50.902435
2023-10-20T10:01:18.304Z,50.902451
2023-10-20T10:02:18.406Z,50.902424
2023-10-20T10:03:18.384Z,50.902416
2023-10-20T10:04:18.247Z,50.902431
2023-10-20T10:05:18.282Z,50.902439
2023-10-20T10:06:18.241Z,50.902424
2023-10-20T10:07:18.246Z,50.902424
2023-10-20T10:08:18.226Z,50.902451
2023-10-20T10:09:18.219Z,50.902348
2023-10-20T10:10:18.203Z,50.902328
2023-10-20T10:11:18.254Z,50.902359
2023-10-20T10:12:18.220Z,50.902412
2023-10-20T10:13:18.177Z,50.902428
2023-10-20T10:14:18.214Z,50.902431
2023-10-20T10:15:18.173Z,50.902412
2023-10-20T10:16:18.203Z,50.902435
2023-10-20T10:17:18.186Z,50.902435
2023-10-20T10:18:18.210Z,50.902393
2023-10-20T10:19:18.158Z,50.902405
2023-10-20T10:20:18.176Z,50.902416
2023-10-20T10:21:18.154Z,50.902409
2023-10-20T10:22:18.120Z,50.902451
2023-10-20T10:23:18.148Z,50.902431
2023-10-20T10:24:18.139Z,50.902409
2023-10-20T10:25:18.102Z,50.902412
2023-10-20T10:26:18.229Z,50.902435
2023-10-20T10:27:18.193Z,50.902439
2023-10-20T10:28:18.076Z,50.902409
2023-10-20T10:29:18.074Z,50.902416
2023-10-20T10:30:18.833Z,50.902393
2023-10-20T10:31:18.831Z,50.902405
2023-10-20T10:32:20.607Z,50.902409
2023-10-20T10:33:20.668Z,50.902424
2023-10-20T10:34:18.091Z,50.902424
2023-10-20T10:35:18.172Z,50.902409
2023-10-20T10:36:18.008Z,50.902447
2023-10-20T10:37:18.004Z,50.902424
2023-10-20T10:38:18.016Z,50.902424
2023-10-20T10:39:17.982Z,50.902378
2023-10-20T10:40:18.008Z,50.902416
2023-10-20T10:41:18.098Z,50.902386
2023-10-20T10:42:17.959Z,50.902416
2023-10-20T10:43:17.988Z,50.902401
2023-10-20T10:44:17.996Z,50.902409
2023-10-20T10:45:17.972Z,50.902393
2023-10-20T10:46:17.977Z,50.902409
2023-10-20T10:47:17.972Z,50.902428
2023-10-20T10:48:17.967Z,50.902386
2023-10-20T10:49:17.935Z,50.902367
2023-10-20T10:50:17.976Z,50.902374
2023-10-20T10:51:17.943Z,50.902390
2023-10-20T10:52:17.920Z,50.902374
2023-10-20T10:53:17.920Z,50.902409
2023-10-20T10:54:17.929Z,50.902390
2023-10-20T10:55:52.137Z,50.902409
2023-10-20T10:56:17.876Z,50.902416
2023-10-20T10:57:17.835Z,50.902397
2023-10-20T10:58:18.858Z,50.902401
2023-10-20T10:59:17.876Z,50.902382
2023-10-20T11:00:18.823Z,50.902370
2023-10-20T11:01:17.860Z,50.902367
2023-10-20T11:02:17.809Z,50.902367
2023-10-20T11:03:17.990Z,50.902416
2023-10-20T11:04:17.838Z,50.902386
2023-10-20T11:05:17.813Z,50.902367
2023-10-20T11:06:17.784Z,50.902336
2023-10-20T11:07:17.767Z,50.902336
2023-10-20T11:08:18.617Z,50.902382
2023-10-20T11:09:17.927Z,50.902397
2023-10-20T11:10:17.740Z,50.902382
2023-10-20T11:11:17.801Z,50.902348
2023-10-20T11:12:18.948Z,50.902363
2023-10-20T11:13:21.873Z,50.902344
2023-10-20T11:14:22.144Z,50.902348
2023-10-20T11:15:17.724Z,50.902386
2023-10-20T11:16:17.724Z,50.902397
2023-10-20T11:17:17.748Z,50.902386
2023-10-20T11:18:17.769Z,50.902355
2023-10-20T11:19:17.678Z,50.902351
2023-10-20T11:20:17.730Z,50.902336
2023-10-20T11:21:17.673Z,50.902336
2023-10-20T11:22:17.774Z,50.902363
2023-10-20T11:23:17.664Z,50.902313
2023-10-20T11:24:17.625Z,50.902325